createdAt,value
2023-01-19T00:00:53.896Z,99279.53
2023-01-19T00:03:21.920Z,99234.06
2023-01-19T00:05:49.202Z,99366.38
2023-01-19T00:08:17.166Z,99381.59
2023-01-19T00:10:46.485Z,99378.25
2023-01-19T00:13:14.999Z,99351.28
2023-01-19T00:15:42.157Z,99316.69
2023-01-19T00:18:10.835Z,99380.75
2023-01-19T00:20:39.247Z,99375.72
2023-01-19T00:23:08.411Z,99379.03
2023-01-19T00:25:36.161Z,99319.97
2023-01-19T00:28:03.120Z,99331.75
2023-01-19T00:30:30.135Z,99367.22
2023-01-19T00:32:57.141Z,99277.06
2023-01-19T00:35:24.332Z,99300.59
2023-01-19T00:37:51.378Z,99372.16
2023-01-19T00:40:18.458Z,99389.09
2023-01-19T00:42:46.144Z,99353.66
2023-01-19T00:45:24.355Z,99318.25
2023-01-19T00:47:57.224Z,99361.38
2023-01-19T00:50:29.624Z,99393.34
2023-01-19T00:52:58.056Z,99342.72
2023-01-19T00:55:25.141Z,99401.78
2023-01-19T00:57:52.055Z,99308.25
2023-01-19T01:00:20.157Z,99395.91
2023-01-19T01:02:48.299Z,99391.69
2023-01-19T01:05:16.351Z,99406.94
2023-01-19T01:07:45.492Z,99332.69
2023-01-19T01:10:16.881Z,99394.25
2023-01-19T01:12:55.954Z,99331.03
2023-01-19T01:15:31.087Z,99374.81
2023-01-19T01:17:58.059Z,99368.94
2023-01-19T01:20:28.158Z,99354.63
2023-01-19T01:22:56.463Z,99405.28
2023-01-19T01:25:25.109Z,99413.63
2023-01-19T01:27:52.674Z,99417.06
2023-01-19T01:30:20.516Z,99404.41
2023-01-19T01:32:47.474Z,99408.59
2023-01-19T01:35:15.024Z,99382.44
2023-01-19T01:37:43.190Z,99398.44
2023-01-19T01:40:13.455Z,99315.00
2023-01-19T01:42:40.773Z,99325.94
2023-01-19T01:45:38.537Z,99298.09
2023-01-19T01:48:10.704Z,99410.22
2023-01-19T01:51:04.111Z,99414.47
2023-01-19T01:53:34.141Z,99347.88
2023-01-19T01:56:04.778Z,99348.69
2023-01-19T01:58:33.155Z,99364.66
2023-01-19T02:01:18.611Z,99351.16
2023-01-19T02:03:46.014Z,99391.69
2023-01-19T02:06:14.842Z,99405.94
2023-01-19T02:09:00.297Z,99411.88
2023-01-19T02:11:47.638Z,99243.28
2023-01-19T02:14:22.127Z,99239.00
2023-01-19T02:16:49.491Z,99336.72
2023-01-19T02:19:24.341Z,99426.19
2023-01-19T02:22:23.975Z,99294.56
2023-01-19T02:24:52.114Z,99320.78
2023-01-19T02:27:20.429Z,99331.66
2023-01-19T02:29:50.084Z,99302.25
2023-01-19T02:32:19.897Z,99323.25
2023-01-19T02:34:49.951Z,99386.56
2023-01-19T02:37:21.740Z,99185.16
2023-01-19T02:40:06.813Z,99335.13
2023-01-19T02:42:40.085Z,99325.00
2023-01-19T02:45:09.845Z,99220.44
2023-01-19T02:47:43.534Z,99407.53
2023-01-19T02:50:46.264Z,99414.28
2023-01-19T02:53:30.706Z,99415.94
2023-01-19T02:56:11.432Z,99360.38
2023-01-19T02:59:05.055Z,99403.31
2023-01-19T03:01:57.273Z,99287.03
2023-01-19T03:04:29.285Z,99411.84
2023-01-19T03:07:03.742Z,99277.84
2023-01-19T03:09:58.304Z,99414.38
2023-01-19T03:12:44.818Z,99386.56
2023-01-19T03:15:29.178Z,99220.56
2023-01-19T03:18:01.011Z,99215.50
2023-01-19T03:20:29.532Z,99337.75
2023-01-19T03:23:04.737Z,99358.78
2023-01-19T03:25:37.506Z,99343.69
2023-01-19T03:28:05.260Z,99295.59
2023-01-19T03:30:39.354Z,99419.63
2023-01-19T03:33:15.623Z,99199.56
2023-01-19T03:35:52.258Z,99302.38
2023-01-19T03:38:25.783Z,99336.88
2023-01-19T03:41:01.865Z,99199.59
2023-01-19T03:43:34.937Z,99219.75
2023-01-19T03:46:09.503Z,99347.78
2023-01-19T03:48:40.597Z,99180.97
2023-01-19T03:51:11.272Z,99360.47
2023-01-19T03:53:38.753Z,99427.13
2023-01-19T03:56:09.800Z,99236.66
2023-01-19T03:58:39.823Z,99296.44
2023-01-19T04:01:07.179Z,99302.34
2023-01-19T04:03:34.458Z,99395.94
2023-01-19T04:06:01.678Z,99363.16
2023-01-19T04:08:29.024Z,99446.59
2023-01-19T04:10:58.146Z,99310.88
2023-01-19T04:13:30.286Z,99300.78
2023-01-19T04:16:07.187Z,99246.00
2023-01-19T04:18:35.004Z,99348.00
2023-01-19T04:21:03.820Z,99319.34
2023-01-19T04:23:34.131Z,99419.72
2023-01-19T04:26:08.283Z,99262.84
2023-01-19T04:28:37.427Z,99348.09
2023-01-19T04:31:06.154Z,99336.25
2023-01-19T04:33:34.089Z,99392.81
2023-01-19T04:36:02.254Z,99424.84
2023-01-19T04:38:31.218Z,99289.88
2023-01-19T04:40:58.415Z,99337.09
2023-01-19T04:43:25.676Z,99278.94
2023-01-19T04:45:53.150Z,99438.38
2023-01-19T04:48:20.568Z,99393.66
2023-01-19T04:50:47.833Z,99412.22
2023-01-19T04:53:18.738Z,99331.22
2023-01-19T04:55:46.955Z,99446.72
2023-01-19T04:58:14.456Z,99318.53
2023-01-19T05:00:41.673Z,99467.88
2023-01-19T05:03:11.367Z,99374.22
2023-01-19T05:05:38.836Z,99396.13
2023-01-19T05:08:09.144Z,99322.72
2023-01-19T05:10:36.872Z,99351.44
2023-01-19T05:13:04.582Z,99467.88
2023-01-19T05:15:31.705Z,99254.47
2023-01-19T05:17:58.920Z,99356.50
2023-01-19T05:20:26.247Z,99264.59
2023-01-19T05:22:53.852Z,99437.47
2023-01-19T05:25:21.341Z,99380.91
2023-01-19T05:27:48.757Z,99300.84
2023-01-19T05:30:19.598Z,99283.13
2023-01-19T05:32:46.925Z,99264.53
2023-01-19T05:35:15.396Z,99370.75
2023-01-19T05:37:44.661Z,99300.88
2023-01-19T05:40:33.649Z,99468.75
2023-01-19T05:43:02.608Z,99402.84
2023-01-19T05:45:29.825Z,99389.34
2023-01-19T05:47:57.435Z,99275.50
2023-01-19T05:50:24.595Z,99364.03
2023-01-19T05:52:53.573Z,99314.25
2023-01-19T05:55:22.545Z,99359.81
2023-01-19T05:57:49.723Z,99344.56
2023-01-19T06:00:17.076Z,99321.81
2023-01-19T06:02:44.386Z,99351.41
2023-01-19T06:05:11.520Z,99358.09
2023-01-19T06:07:38.575Z,99484.59
2023-01-19T06:10:39.663Z,99477.06
2023-01-19T06:13:07.255Z,99452.59
2023-01-19T06:15:34.541Z,99382.59
2023-01-19T06:18:01.785Z,99460.13
2023-01-19T06:20:29.117Z,99334.47
2023-01-19T06:22:59.453Z,99444.13
2023-01-19T06:25:26.799Z,99453.41
2023-01-19T06:27:54.258Z,99385.88
2023-01-19T06:30:21.584Z,99424.72
2023-01-19T06:32:48.777Z,99421.34
2023-01-19T06:35:16.041Z,99447.56
2023-01-19T06:37:43.175Z,99423.03
2023-01-19T06:40:12.464Z,99504.09
2023-01-19T06:42:40.487Z,99421.41
2023-01-19T06:45:09.942Z,99326.06
2023-01-19T06:47:37.852Z,99418.75
2023-01-19T06:50:05.261Z,99520.09
2023-01-19T06:52:42.769Z,99385.06
2023-01-19T06:55:11.425Z,99338.69
2023-01-19T06:57:39.272Z,99324.31
2023-01-19T07:00:09.226Z,99328.59
2023-01-19T07:02:37.442Z,99459.28
2023-01-19T07:05:07.282Z,99372.44
2023-01-19T07:07:34.368Z,99525.19
2023-01-19T07:10:01.539Z,99531.91
2023-01-19T07:12:31.601Z,99369.97
2023-01-19T07:14:58.696Z,99407.94
2023-01-19T07:17:28.773Z,99494.81
2023-01-19T07:19:56.032Z,99396.19
2023-01-19T07:22:23.330Z,99408.75
2023-01-19T07:24:50.632Z,99359.91
2023-01-19T07:27:18.177Z,99517.69
2023-01-19T07:29:45.568Z,99411.34
2023-01-19T07:32:13.280Z,99362.41
2023-01-19T07:34:40.671Z,99399.59
2023-01-19T07:37:08.058Z,99348.91
2023-01-19T07:39:36.891Z,99359.00
2023-01-19T07:42:04.616Z,99454.31
2023-01-19T07:44:31.844Z,99435.75
2023-01-19T07:46:59.946Z,99461.13
2023-01-19T07:50:05.837Z,99374.19
2023-01-19T07:52:32.959Z,99414.59
2023-01-19T07:55:00.123Z,99439.84
2023-01-19T07:57:30.088Z,99574.09
2023-01-19T07:59:57.005Z,99506.72
2023-01-19T08:02:24.180Z,99515.06
2023-01-19T08:04:51.027Z,99575.84
2023-01-19T08:07:18.348Z,99596.06
2023-01-19T08:09:45.197Z,99543.69
2023-01-19T08:12:12.563Z,99478.69
2023-01-19T08:14:48.898Z,99482.09
2023-01-19T08:17:15.900Z,99450.00
2023-01-19T08:19:43.585Z,99529.25
2023-01-19T08:22:10.575Z,99577.38
2023-01-19T08:24:37.659Z,99583.28
2023-01-19T08:27:05.088Z,99599.34
2023-01-19T08:29:33.959Z,99590.88
2023-01-19T08:32:02.984Z,99531.75
2023-01-19T08:34:31.208Z,99606.91
2023-01-19T08:36:58.972Z,99591.66
2023-01-19T08:39:25.961Z,99584.09
2023-01-19T08:41:52.868Z,99555.38
2023-01-19T08:44:19.903Z,99589.09
2023-01-19T08:46:47.481Z,99555.34
2023-01-19T08:49:14.386Z,99543.53
2023-01-19T08:51:41.337Z,99551.22
2023-01-19T08:54:08.203Z,99566.28
2023-01-19T08:56:35.042Z,99562.97
2023-01-19T08:59:11.877Z,99539.28
2023-01-19T09:01:41.523Z,99589.91
2023-01-19T09:04:08.675Z,99562.81
2023-01-19T09:06:35.576Z,99583.09
2023-01-19T09:09:02.773Z,99557.81
2023-01-19T09:11:31.200Z,99599.19
2023-01-19T09:13:57.945Z,99594.81
2023-01-19T09:16:27.217Z,99565.28
2023-01-19T09:18:54.416Z,99600.84
2023-01-19T09:21:21.285Z,99598.19
2023-01-19T09:23:49.634Z,99587.34
2023-01-19T09:26:16.779Z,99603.31
2023-01-19T09:28:43.705Z,99561.94
2023-01-19T09:31:10.842Z,99534.91
2023-01-19T09:33:38.043Z,99561.78
2023-01-19T09:36:05.111Z,99546.66
2023-01-19T09:38:33.156Z,99546.59
2023-01-19T09:41:01.373Z,99566.88
2023-01-19T09:43:54.643Z,99587.97
2023-01-19T09:46:30.349Z,99614.06
2023-01-19T09:48:59.764Z,99567.53
2023-01-19T09:51:35.085Z,99579.13
2023-01-19T09:54:17.228Z,99598.75
2023-01-19T09:56:46.156Z,99602.59
2023-01-19T09:59:23.917Z,99609.47
2023-01-19T10:02:23.872Z,99608.19
2023-01-19T10:05:14.993Z,99607.41
2023-01-19T10:08:03.947Z,99606.66
2023-01-19T10:10:41.205Z,99591.50
2023-01-19T10:13:44.870Z,99604.94
2023-01-19T10:16:31.693Z,99608.31
2023-01-19T10:19:13.073Z,99584.38
2023-01-19T10:21:44.863Z,99568.28
2023-01-19T10:24:20.388Z,99601.94
2023-01-19T10:26:51.696Z,99603.59
2023-01-19T10:29:34.905Z,99586.25
2023-01-19T10:32:09.115Z,99584.66
2023-01-19T10:34:36.952Z,99594.97
2023-01-19T10:37:17.562Z,99594.03
2023-01-19T10:39:54.055Z,99576.34
2023-01-19T10:42:21.240Z,99595.66
2023-01-19T10:44:49.809Z,99572.78
2023-01-19T10:47:19.265Z,99554.44
2023-01-19T10:49:48.145Z,99575.66
2023-01-19T10:52:32.127Z,99565.09
2023-01-19T10:55:00.673Z,99588.38
2023-01-19T10:57:38.420Z,99581.44
2023-01-19T11:00:08.102Z,99603.44
2023-01-19T11:02:35.144Z,99550.69
2023-01-19T11:05:31.857Z,99575.16
2023-01-19T11:07:59.136Z,99604.66
2023-01-19T11:10:28.171Z,99557.78
2023-01-19T11:13:12.704Z,99598.00
2023-01-19T11:15:55.045Z,99594.69
2023-01-19T11:18:30.115Z,99574.59
2023-01-19T11:21:02.433Z,99582.09
2023-01-19T11:23:44.163Z,99608.34
2023-01-19T11:26:16.479Z,99578.94
2023-01-19T11:28:48.596Z,99604.03
2023-01-19T11:31:15.425Z,99605.88
2023-01-19T11:33:43.544Z,99604.28
2023-01-19T11:36:21.906Z,99602.63
2023-01-19T11:38:51.387Z,99587.72
2023-01-19T11:41:20.025Z,99606.28
2023-01-19T11:43:51.827Z,99554.66
2023-01-19T11:46:19.272Z,99533.56
2023-01-19T11:49:02.535Z,99616.91
2023-01-19T11:52:04.844Z,99597.50
2023-01-19T11:54:47.682Z,99547.78
2023-01-19T11:57:17.371Z,99597.38
2023-01-19T11:59:44.647Z,99589.75
2023-01-19T12:02:24.596Z,99586.00
2023-01-19T12:04:58.026Z,99521.78
2023-01-19T12:07:30.673Z,99559.53
2023-01-19T12:10:25.401Z,99521.06
2023-01-19T12:12:53.744Z,99575.72
2023-01-19T12:15:28.144Z,99552.19
2023-01-19T12:18:00.966Z,99557.72
2023-01-19T12:20:41.875Z,99571.06
2023-01-19T12:23:11.829Z,99573.34
2023-01-19T12:26:04.343Z,99545.69
2023-01-19T12:28:35.163Z,99562.00
2023-01-19T12:31:04.049Z,99527.66
2023-01-19T12:33:40.630Z,99530.28
2023-01-19T12:36:41.395Z,99549.22
2023-01-19T12:39:19.936Z,99530.19
2023-01-19T12:41:47.685Z,99551.44
2023-01-19T12:44:20.315Z,99537.41
2023-01-19T12:46:50.221Z,99551.78
2023-01-19T12:49:40.603Z,99507.63
2023-01-19T12:52:20.965Z,99532.75
2023-01-19T12:54:57.587Z,99516.41
2023-01-19T12:57:56.717Z,99545.97
2023-01-19T13:00:23.611Z,99550.88
2023-01-19T13:02:53.897Z,99549.41
2023-01-19T13:05:46.026Z,99555.16
2023-01-19T13:08:13.440Z,99551.78
2023-01-19T13:11:12.765Z,99549.06
2023-01-19T13:13:48.919Z,99553.22
2023-01-19T13:16:18.894Z,99545.38
2023-01-19T13:18:48.966Z,99542.25
2023-01-19T13:21:36.090Z,99543.94
2023-01-19T13:24:08.402Z,99547.34
2023-01-19T13:26:42.840Z,99512.25
2023-01-19T13:29:17.186Z,99515.84
2023-01-19T13:31:46.048Z,99530.84
2023-01-19T13:34:17.673Z,99537.66
2023-01-19T13:36:47.040Z,99461.66
2023-01-19T13:39:18.338Z,99548.28
2023-01-19T13:41:47.320Z,99523.81
2023-01-19T13:44:21.991Z,99448.03
2023-01-19T13:46:50.520Z,99546.69
2023-01-19T13:49:29.848Z,99556.63
2023-01-19T13:52:21.268Z,99508.13
2023-01-19T13:54:53.173Z,99529.50
2023-01-19T13:57:23.431Z,99560.66
2023-01-19T14:00:12.114Z,99559.31
2023-01-19T14:02:42.718Z,99516.56
2023-01-19T14:05:21.901Z,99559.81
2023-01-19T14:07:48.995Z,99510.47
2023-01-19T14:10:16.988Z,99492.31
2023-01-19T14:12:58.642Z,99506.22
2023-01-19T14:15:26.940Z,99522.16
2023-01-19T14:18:10.363Z,99568.47
2023-01-19T14:20:37.896Z,99555.09
2023-01-19T14:23:06.825Z,99563.75
2023-01-19T14:25:36.411Z,99570.13
2023-01-19T14:28:28.737Z,99575.16
2023-01-19T14:31:01.604Z,99543.94
2023-01-19T14:33:48.125Z,99570.66
2023-01-19T14:36:17.571Z,99544.06
2023-01-19T14:38:46.324Z,99556.97
2023-01-19T14:41:40.930Z,99535.13
2023-01-19T14:44:10.715Z,99579.88
2023-01-19T14:46:38.796Z,99514.38
2023-01-19T14:49:06.828Z,99546.06
2023-01-19T14:51:33.977Z,99528.25
2023-01-19T14:54:02.993Z,99582.09
2023-01-19T14:56:32.760Z,99584.41
2023-01-19T14:59:01.683Z,99536.47
2023-01-19T15:01:29.134Z,99584.50
2023-01-19T15:03:57.071Z,99549.91
2023-01-19T15:06:26.269Z,99595.69
2023-01-19T15:08:54.404Z,99567.50
2023-01-19T15:11:30.140Z,99589.94
2023-01-19T15:13:57.612Z,99563.66
2023-01-19T15:16:25.365Z,99552.84
2023-01-19T15:18:52.922Z,99574.53
2023-01-19T15:21:23.624Z,99558.50
2023-01-19T15:23:50.771Z,99548.41
2023-01-19T15:26:20.907Z,99577.03
2023-01-19T15:28:49.753Z,99582.94
2023-01-19T15:31:19.557Z,99556.16
2023-01-19T15:33:46.555Z,99594.41
2023-01-19T15:36:19.172Z,99536.75
2023-01-19T15:38:47.068Z,99554.63
2023-01-19T15:41:18.571Z,99543.25
2023-01-19T15:43:45.514Z,99590.03
2023-01-19T15:46:16.038Z,99600.47
2023-01-19T15:48:43.074Z,99556.72
2023-01-19T15:51:15.096Z,99569.38
2023-01-19T15:53:42.561Z,99581.88
2023-01-19T15:56:16.647Z,99601.66
2023-01-19T15:58:43.805Z,99563.13
2023-01-19T16:01:17.764Z,99574.88
2023-01-19T16:03:45.381Z,99600.50
2023-01-19T16:06:13.017Z,99583.84
2023-01-19T16:08:40.031Z,99611.22
2023-01-19T16:11:12.600Z,99595.47
2023-01-19T16:13:40.092Z,99589.81
2023-01-19T16:16:18.955Z,99614.44
2023-01-19T16:18:46.278Z,99621.22
2023-01-19T16:21:13.163Z,99577.66
2023-01-19T16:23:40.172Z,99569.81
2023-01-19T16:26:23.041Z,99559.34
2023-01-19T16:28:49.887Z,99520.84
2023-01-19T16:31:16.965Z,99591.25
2023-01-19T16:33:45.390Z,99591.75
2023-01-19T16:36:30.563Z,99589.09
2023-01-19T16:39:26.840Z,99622.84
2023-01-19T16:41:53.748Z,99595.34
2023-01-19T16:44:20.592Z,99582.50
2023-01-19T16:46:49.944Z,99627.88
2023-01-19T16:49:22.577Z,99620.84
2023-01-19T16:51:50.779Z,99623.16
2023-01-19T16:54:20.592Z,99560.69
2023-01-19T16:56:48.733Z,99582.91
2023-01-19T16:59:17.035Z,99568.38
2023-01-19T17:01:45.571Z,99560.88
2023-01-19T17:04:13.566Z,99629.28
2023-01-19T17:06:40.922Z,99604.03
2023-01-19T17:09:09.579Z,99632.75
2023-01-19T17:11:36.854Z,99576.34
2023-01-19T17:14:21.945Z,99574.56
2023-01-19T17:16:49.424Z,99610.91
2023-01-19T17:19:18.964Z,99604.16
2023-01-19T17:21:48.863Z,99592.47
2023-01-19T17:24:16.704Z,99617.72
2023-01-19T17:26:46.081Z,99590.88
2023-01-19T17:29:12.885Z,99595.16
2023-01-19T17:31:39.825Z,99616.44
2023-01-19T17:34:07.242Z,99613.09
2023-01-19T17:36:34.205Z,99599.56
2023-01-19T17:39:06.153Z,99600.50
2023-01-19T17:41:35.444Z,99647.72
2023-01-19T17:44:04.012Z,99651.25
2023-01-19T17:46:31.115Z,99656.50
2023-01-19T17:49:01.904Z,99658.19
2023-01-19T17:51:30.241Z,99654.09
2023-01-19T17:53:58.039Z,99618.84
2023-01-19T17:56:29.794Z,99606.06
2023-01-19T17:58:58.266Z,99643.19
2023-01-19T18:01:28.607Z,99599.59
2023-01-19T18:03:55.991Z,99662.84
2023-01-19T18:06:23.108Z,99666.31
2023-01-19T18:08:50.677Z,99662.22
2023-01-19T18:11:19.814Z,99611.53
2023-01-19T18:13:48.894Z,99650.38
2023-01-19T18:16:20.663Z,99669.72
2023-01-19T18:18:49.877Z,99642.72
2023-01-19T18:21:17.933Z,99685.88
2023-01-19T18:23:46.069Z,99636.03
2023-01-19T18:26:15.533Z,99646.19
2023-01-19T18:28:42.436Z,99674.00
2023-01-19T18:31:12.311Z,99681.66
2023-01-19T18:33:40.253Z,99652.13
2023-01-19T18:36:08.207Z,99657.94
2023-01-19T18:38:36.543Z,99682.56
2023-01-19T18:41:06.189Z,99676.63
2023-01-19T18:43:33.371Z,99656.28
2023-01-19T18:46:00.529Z,99609.06
2023-01-19T18:48:27.666Z,99658.88
2023-01-19T18:50:54.997Z,99677.38
2023-01-19T18:53:22.264Z,99680.00
2023-01-19T18:55:58.048Z,99652.03
2023-01-19T18:58:28.765Z,99656.44
2023-01-19T19:01:00.177Z,99633.72
2023-01-19T19:03:27.450Z,99632.69
2023-01-19T19:05:54.540Z,99604.91
2023-01-19T19:08:21.497Z,99684.91
2023-01-19T19:10:48.531Z,99664.75
2023-01-19T19:13:17.426Z,99672.59
2023-01-19T19:15:44.635Z,99670.03
2023-01-19T19:18:14.202Z,99684.47
2023-01-19T19:20:43.386Z,99670.91
2023-01-19T19:23:11.767Z,99690.16
2023-01-19T19:25:38.690Z,99675.88
2023-01-19T19:28:05.748Z,99658.88
2023-01-19T19:30:35.033Z,99646.22
2023-01-19T19:33:02.006Z,99617.53
2023-01-19T19:35:29.144Z,99692.03
2023-01-19T19:37:57.849Z,99636.16
2023-01-19T19:40:28.527Z,99658.16
2023-01-19T19:42:58.422Z,99693.63
2023-01-19T19:45:25.764Z,99660.69
2023-01-19T19:47:52.568Z,99615.91
2023-01-19T19:50:19.620Z,99658.97
2023-01-19T19:52:46.555Z,99632.69
2023-01-19T19:55:13.862Z,99650.47
2023-01-19T19:57:40.968Z,99690.25
2023-01-19T20:00:08.993Z,99640.47
2023-01-19T20:02:36.333Z,99667.69
2023-01-19T20:05:03.508Z,99663.44
2023-01-19T20:07:30.680Z,99650.84
2023-01-19T20:09:57.600Z,99640.63
2023-01-19T20:12:24.553Z,99654.09
2023-01-19T20:14:51.353Z,99625.47
2023-01-19T20:17:19.366Z,99657.59
2023-01-19T20:19:47.728Z,99667.69
2023-01-19T20:22:15.397Z,99621.22
2023-01-19T20:24:42.706Z,99699.81
2023-01-19T20:27:09.750Z,99644.88
2023-01-19T20:29:36.702Z,99686.91
2023-01-19T20:32:03.591Z,99641.38
2023-01-19T20:34:33.470Z,99694.38
2023-01-19T20:37:01.912Z,99638.81
2023-01-19T20:39:30.304Z,99692.75
2023-01-19T20:41:57.157Z,99662.25
2023-01-19T20:44:25.886Z,99668.28
2023-01-19T20:46:54.428Z,99703.72
2023-01-19T20:49:21.822Z,99653.84
2023-01-19T20:51:50.062Z,99716.44
2023-01-19T20:54:18.857Z,99646.38
2023-01-19T20:56:45.766Z,99635.34
2023-01-19T20:59:13.015Z,99690.25
2023-01-19T21:01:41.044Z,99650.66
2023-01-19T21:04:08.765Z,99703.97
2023-01-19T21:06:36.114Z,99696.38
2023-01-19T21:09:03.136Z,99663.47
2023-01-19T21:11:30.066Z,99648.13
2023-01-19T21:13:56.885Z,99689.41
2023-01-19T21:16:25.875Z,99681.81
2023-01-19T21:18:53.333Z,99703.84
2023-01-19T21:21:29.858Z,99728.22
2023-01-19T21:23:59.459Z,99737.53
2023-01-19T21:26:26.374Z,99710.00
2023-01-19T21:28:53.224Z,99720.13
2023-01-19T21:31:23.145Z,99649.19
2023-01-19T21:33:53.988Z,99732.78
2023-01-19T21:36:22.710Z,99748.91
2023-01-19T21:38:51.614Z,99724.34
2023-01-19T21:41:18.849Z,99716.78
2023-01-19T21:43:46.447Z,99723.66
2023-01-19T21:46:18.647Z,99705.09
2023-01-19T21:48:46.238Z,99745.63
2023-01-19T21:51:14.854Z,99711.94
2023-01-19T21:53:42.159Z,99748.22
2023-01-19T21:56:10.243Z,99771.88
2023-01-19T21:58:37.822Z,99746.53
2023-01-19T22:01:09.841Z,99773.56
2023-01-19T22:03:36.659Z,99747.31
2023-01-19T22:06:05.925Z,99771.81
2023-01-19T22:08:33.751Z,99787.00
2023-01-19T22:11:08.174Z,99751.53
2023-01-19T22:13:36.416Z,99750.72
2023-01-19T22:16:04.849Z,99775.31
2023-01-19T22:18:31.751Z,99755.97
2023-01-19T22:21:11.364Z,99735.69
2023-01-19T22:23:38.825Z,99784.88
2023-01-19T22:26:06.259Z,99770.50
2023-01-19T22:28:33.755Z,99681.88
2023-01-19T22:31:15.495Z,99794.00
2023-01-19T22:33:43.401Z,99733.47
2023-01-19T22:36:20.121Z,99791.78
2023-01-19T22:38:52.383Z,99781.41
2023-01-19T22:41:25.585Z,99766.09
2023-01-19T22:43:57.656Z,99770.31
2023-01-19T22:46:26.678Z,99761.88
2023-01-19T22:48:54.433Z,99783.94
2023-01-19T22:51:22.943Z,99804.22
2023-01-19T22:53:49.740Z,99805.09
2023-01-19T22:56:19.525Z,99765.34
2023-01-19T22:58:47.307Z,99782.31
2023-01-19T23:01:17.538Z,99808.63
2023-01-19T23:03:44.419Z,99806.91
2023-01-19T23:06:17.303Z,99779.06
2023-01-19T23:08:44.808Z,99802.56
2023-01-19T23:11:15.439Z,99730.72
2023-01-19T23:13:43.019Z,99806.84
2023-01-19T23:16:11.191Z,99807.84
2023-01-19T23:18:38.503Z,99775.72
2023-01-19T23:21:09.487Z,99800.22
2023-01-19T23:23:36.769Z,99774.09
2023-01-19T23:26:07.218Z,99754.81
2023-01-19T23:28:34.633Z,99817.31
2023-01-19T23:31:12.579Z,99780.13
2023-01-19T23:33:39.707Z,99817.38
2023-01-19T23:36:06.917Z,99808.19
2023-01-19T23:38:33.778Z,99764.28
2023-01-19T23:41:00.591Z,99814.16
2023-01-19T23:43:27.374Z,99754.13
2023-01-19T23:45:54.280Z,99794.59
2023-01-19T23:48:21.112Z,99802.19
2023-01-19T23:50:47.906Z,99807.22
2023-01-19T23:53:14.718Z,99809.16
2023-01-19T23:55:42.098Z,99802.28
2023-01-19T23:58:09.010Z,99797.25
